createdAt,value
2018-12-31T00:02:31.061Z,4.50
2018-12-31T00:05:00.034Z,4.50
2018-12-31T00:07:29.402Z,4.50
2018-12-31T00:09:58.509Z,4.50
2018-12-31T00:12:27.509Z,4.50
2018-12-31T00:14:56.578Z,4.50
2018-12-31T00:17:25.641Z,4.50
2018-12-31T00:19:55.093Z,4.60
2018-12-31T00:22:24.150Z,4.50
2018-12-31T00:24:53.382Z,4.50
2018-12-31T00:27:22.298Z,4.50
2018-12-31T00:29:51.502Z,4.60
2018-12-31T00:32:20.366Z,4.60
2018-12-31T00:34:49.321Z,4.60
2018-12-31T00:37:18.173Z,4.60
2018-12-31T00:39:47.405Z,4.60
2018-12-31T00:42:16.257Z,4.60
2018-12-31T00:44:45.186Z,4.50
2018-12-31T00:47:14.216Z,4.50
2018-12-31T00:49:43.087Z,4.50
2018-12-31T00:52:11.954Z,4.50
2018-12-31T00:54:42.696Z,4.60
2018-12-31T00:57:11.565Z,4.60
2018-12-31T00:59:40.389Z,4.60
2018-12-31T01:02:09.337Z,4.60
2018-12-31T01:04:38.253Z,4.60
2018-12-31T01:07:07.205Z,4.60
2018-12-31T01:09:36.125Z,4.60
2018-12-31T01:12:05.243Z,4.60
2018-12-31T01:14:34.178Z,4.70
2018-12-31T01:17:04.621Z,4.70
2018-12-31T01:19:34.091Z,4.70
2018-12-31T01:22:03.009Z,4.80
2018-12-31T01:24:31.956Z,4.80
2018-12-31T01:27:00.973Z,4.70
2018-12-31T01:29:29.942Z,4.60
2018-12-31T01:31:58.950Z,4.60
2018-12-31T01:34:27.802Z,4.70
2018-12-31T01:36:57.021Z,4.70
2018-12-31T01:39:25.874Z,4.70
2018-12-31T01:41:54.797Z,4.70
2018-12-31T01:44:23.718Z,4.70
2018-12-31T01:46:52.591Z,4.70
2018-12-31T01:49:21.457Z,4.70
2018-12-31T01:51:50.441Z,4.70
2018-12-31T01:54:19.649Z,4.70
2018-12-31T01:56:48.485Z,4.70
2018-12-31T01:59:17.417Z,4.60
2018-12-31T02:01:46.254Z,4.50
2018-12-31T02:04:15.227Z,4.60
2018-12-31T02:06:44.499Z,4.60
2018-12-31T02:09:13.337Z,4.60
2018-12-31T02:11:42.575Z,4.60
2018-12-31T02:14:11.422Z,4.60
2018-12-31T02:16:40.273Z,4.60
2018-12-31T02:19:09.181Z,4.60
2018-12-31T02:21:38.101Z,4.50
2018-12-31T02:24:07.349Z,4.50
2018-12-31T02:26:36.869Z,4.50
2018-12-31T02:29:05.793Z,4.50
2018-12-31T02:31:34.722Z,4.50
2018-12-31T02:34:03.639Z,4.50
2018-12-31T02:36:32.579Z,4.40
2018-12-31T02:39:01.818Z,4.40
2018-12-31T02:41:30.879Z,4.50
2018-12-31T02:43:59.969Z,4.50
2018-12-31T02:46:29.177Z,4.50
2018-12-31T02:48:58.368Z,4.50
2018-12-31T02:51:27.217Z,4.60
2018-12-31T02:53:56.128Z,4.50
2018-12-31T02:56:25.285Z,4.50
2018-12-31T02:58:54.131Z,4.50
2018-12-31T03:01:22.973Z,4.50
2018-12-31T03:03:51.978Z,4.40
2018-12-31T03:06:20.980Z,4.50
2018-12-31T03:08:49.901Z,4.50
2018-12-31T03:11:18.821Z,4.50
2018-12-31T03:13:47.660Z,4.50
2018-12-31T03:16:16.508Z,4.50
2018-12-31T03:18:45.433Z,4.50
2018-12-31T03:21:14.459Z,4.50
2018-12-31T03:23:43.424Z,4.50
2018-12-31T03:26:12.359Z,4.50
2018-12-31T03:28:41.196Z,4.50
2018-12-31T03:31:10.124Z,4.50
2018-12-31T03:33:39.035Z,4.50
2018-12-31T03:36:08.044Z,4.40
2018-12-31T03:38:36.945Z,4.40
2018-12-31T03:41:05.961Z,4.50
2018-12-31T03:43:36.100Z,4.40
2018-12-31T03:46:05.165Z,4.40
2018-12-31T03:48:34.424Z,4.50
2018-12-31T03:51:03.266Z,4.50
2018-12-31T03:53:32.277Z,4.50
2018-12-31T03:56:01.264Z,4.50
2018-12-31T03:58:30.105Z,4.50
2018-12-31T04:00:58.984Z,4.50
2018-12-31T04:03:28.009Z,4.50
2018-12-31T04:05:56.934Z,4.40
2018-12-31T04:08:26.847Z,4.40
2018-12-31T04:10:56.066Z,4.40
2018-12-31T04:13:24.916Z,4.40
2018-12-31T04:15:53.754Z,4.40
2018-12-31T04:18:22.674Z,4.40
2018-12-31T04:20:51.515Z,4.40
2018-12-31T04:23:20.364Z,4.50
2018-12-31T04:25:49.230Z,4.40
2018-12-31T04:28:18.061Z,4.30
2018-12-31T04:30:47.287Z,4.20
2018-12-31T04:33:16.125Z,4.30
2018-12-31T04:35:44.966Z,4.30
2018-12-31T04:38:13.902Z,4.20
2018-12-31T04:40:42.919Z,4.20
2018-12-31T04:43:11.783Z,4.30
2018-12-31T04:45:40.731Z,4.30
2018-12-31T04:48:10.014Z,4.10
2018-12-31T04:50:38.850Z,4.10
2018-12-31T04:53:07.778Z,4.20
2018-12-31T04:55:43.984Z,4.10
2018-12-31T04:58:07.266Z,4.00
2018-12-31T05:00:36.101Z,4.00
2018-12-31T05:03:05.030Z,4.10
2018-12-31T05:05:33.945Z,4.10
2018-12-31T05:08:02.877Z,4.20
2018-12-31T05:10:31.810Z,4.20
2018-12-31T05:13:00.762Z,4.20
2018-12-31T05:15:29.949Z,4.30
2018-12-31T05:17:58.899Z,4.20
2018-12-31T05:20:27.921Z,4.20
2018-12-31T05:22:57.060Z,4.20
2018-12-31T05:25:26.374Z,4.20
2018-12-31T05:27:55.259Z,4.10
2018-12-31T05:30:24.546Z,4.10
2018-12-31T05:32:53.807Z,4.20
2018-12-31T05:35:22.865Z,4.20
2018-12-31T05:37:51.777Z,4.20
2018-12-31T05:40:20.693Z,4.20
2018-12-31T05:42:49.906Z,4.20
2018-12-31T05:45:18.832Z,4.20
2018-12-31T05:47:48.050Z,4.20
2018-12-31T05:50:16.899Z,4.30
2018-12-31T05:52:45.749Z,4.30
2018-12-31T05:55:14.699Z,4.30
2018-12-31T05:57:43.941Z,4.20
2018-12-31T06:00:12.801Z,4.20
2018-12-31T06:02:41.633Z,4.20
2018-12-31T06:05:10.553Z,4.30
2018-12-31T06:07:39.464Z,4.10
2018-12-31T06:10:08.389Z,4.20
2018-12-31T06:12:37.229Z,4.20
2018-12-31T06:15:06.557Z,4.10
2018-12-31T06:17:35.505Z,4.10
2018-12-31T06:20:04.502Z,4.10
2018-12-31T06:22:33.342Z,4.20
2018-12-31T06:25:02.537Z,4.20
2018-12-31T06:27:31.513Z,4.30
2018-12-31T06:30:02.176Z,4.20
2018-12-31T06:32:31.985Z,4.20
2018-12-31T06:35:00.946Z,4.20
2018-12-31T06:37:32.643Z,4.10
2018-12-31T06:40:01.498Z,4.00
2018-12-31T06:42:30.489Z,4.10
2018-12-31T06:44:59.426Z,4.00
2018-12-31T06:47:28.266Z,4.00
2018-12-31T06:49:57.231Z,4.00
2018-12-31T06:52:26.075Z,3.90
2018-12-31T06:54:54.913Z,4.00
2018-12-31T06:57:23.750Z,4.10
2018-12-31T06:59:52.669Z,4.10
2018-12-31T07:02:21.510Z,4.10
2018-12-31T07:04:50.433Z,4.00
2018-12-31T07:07:20.265Z,4.00
2018-12-31T07:09:49.142Z,4.00
2018-12-31T07:12:18.050Z,4.00
2018-12-31T07:14:46.973Z,4.10
2018-12-31T07:17:15.930Z,4.10
2018-12-31T07:19:44.879Z,4.10
2018-12-31T07:22:13.890Z,4.20
2018-12-31T07:24:43.077Z,4.10
2018-12-31T07:27:12.281Z,4.10
2018-12-31T07:29:41.117Z,4.10
2018-12-31T07:32:09.985Z,4.00
2018-12-31T07:34:38.824Z,4.00
2018-12-31T07:37:07.677Z,3.90
2018-12-31T07:39:36.516Z,3.90
2018-12-31T07:42:05.620Z,4.00
2018-12-31T07:44:34.806Z,3.90
2018-12-31T07:47:03.724Z,3.90
2018-12-31T07:49:32.637Z,3.90
2018-12-31T07:52:01.486Z,3.80
2018-12-31T07:54:30.333Z,3.80
2018-12-31T07:56:59.282Z,3.80
2018-12-31T07:59:28.299Z,3.90
2018-12-31T08:01:57.370Z,3.80
2018-12-31T08:04:26.221Z,3.80
2018-12-31T08:06:55.141Z,3.70
2018-12-31T08:09:24.441Z,3.60
2018-12-31T08:11:53.481Z,3.60
2018-12-31T08:14:22.325Z,3.50
2018-12-31T08:16:51.505Z,3.60
2018-12-31T08:19:20.337Z,3.70
2018-12-31T08:21:49.266Z,3.60
2018-12-31T08:24:18.193Z,3.60
2018-12-31T08:26:47.357Z,3.60
2018-12-31T08:29:16.213Z,3.70
2018-12-31T08:31:45.066Z,3.80
2018-12-31T08:34:14.233Z,3.70
2018-12-31T08:36:43.128Z,3.80
2018-12-31T08:39:11.970Z,3.80
2018-12-31T08:41:40.829Z,3.90
2018-12-31T08:44:09.664Z,3.90
2018-12-31T08:46:38.617Z,3.90
2018-12-31T08:49:07.844Z,4.00
2018-12-31T08:51:36.826Z,3.90
2018-12-31T08:54:06.095Z,3.80
2018-12-31T08:56:34.941Z,3.80
2018-12-31T08:59:03.789Z,3.80
2018-12-31T09:01:32.761Z,3.90
2018-12-31T09:04:01.633Z,3.90
2018-12-31T09:06:30.473Z,3.80
2018-12-31T09:08:59.495Z,3.80
2018-12-31T09:11:28.393Z,3.90
2018-12-31T09:13:57.242Z,3.90
2018-12-31T09:16:26.354Z,4.00
2018-12-31T09:18:55.274Z,4.00
2018-12-31T09:21:24.183Z,4.10
2018-12-31T09:23:53.161Z,4.00
2018-12-31T09:26:22.107Z,4.00
2018-12-31T09:28:51.143Z,4.00
2018-12-31T09:31:19.980Z,4.10
2018-12-31T09:33:49.201Z,4.10
2018-12-31T09:36:18.045Z,4.10
2018-12-31T09:38:46.892Z,4.20
2018-12-31T09:41:15.801Z,4.20
2018-12-31T09:44:03.945Z,4.20
2018-12-31T09:46:32.791Z,4.20
2018-12-31T09:49:01.637Z,4.20
2018-12-31T09:51:30.481Z,4.10
2018-12-31T09:53:59.607Z,4.00
2018-12-31T09:56:28.462Z,4.10
2018-12-31T09:58:57.333Z,4.10
2018-12-31T10:01:26.270Z,4.20
2018-12-31T10:03:55.231Z,4.20
2018-12-31T10:06:24.166Z,4.30
2018-12-31T10:08:54.389Z,4.20
2018-12-31T10:11:23.310Z,4.30
2018-12-31T10:13:52.157Z,4.20
2018-12-31T10:16:21.065Z,4.30
2018-12-31T10:18:51.637Z,4.30
2018-12-31T10:21:20.475Z,4.30
2018-12-31T10:23:49.401Z,4.30
2018-12-31T10:26:18.610Z,4.40
2018-12-31T10:28:47.469Z,4.50
2018-12-31T10:31:16.305Z,4.50
2018-12-31T10:33:45.746Z,4.40
2018-12-31T10:36:14.658Z,4.50
2018-12-31T10:38:43.498Z,4.50
2018-12-31T10:41:12.566Z,4.50
2018-12-31T10:43:41.400Z,4.50
2018-12-31T10:46:10.275Z,4.60
2018-12-31T10:48:39.291Z,4.70
2018-12-31T10:51:08.510Z,4.70
2018-12-31T10:53:37.437Z,4.70
2018-12-31T10:56:06.365Z,4.70
2018-12-31T10:58:35.525Z,4.70
2018-12-31T11:01:04.486Z,4.70
2018-12-31T11:03:33.723Z,4.80
2018-12-31T11:06:02.650Z,4.80
2018-12-31T11:08:31.593Z,4.80
2018-12-31T11:11:00.506Z,4.90
2018-12-31T11:13:29.469Z,4.90
2018-12-31T11:15:58.834Z,5.00
2018-12-31T11:18:28.183Z,5.00
2018-12-31T11:20:58.548Z,5.00
2018-12-31T11:23:29.345Z,5.00
2018-12-31T11:25:58.209Z,5.00
2018-12-31T11:28:27.061Z,5.10
2018-12-31T11:30:55.907Z,5.10
2018-12-31T11:33:24.746Z,5.10
2018-12-31T11:35:53.601Z,5.10
2018-12-31T11:38:22.781Z,5.10
2018-12-31T11:40:51.889Z,5.10
2018-12-31T11:43:22.072Z,5.10
2018-12-31T11:45:51.205Z,5.00
2018-12-31T11:48:20.037Z,5.10
2018-12-31T11:50:48.962Z,5.00
2018-12-31T11:53:17.909Z,5.10
2018-12-31T11:55:46.829Z,5.10
2018-12-31T11:58:15.837Z,5.10
2018-12-31T12:00:44.953Z,5.10
2018-12-31T12:03:14.136Z,5.20
2018-12-31T12:05:42.977Z,5.20
2018-12-31T12:08:11.833Z,5.20
2018-12-31T12:10:40.741Z,5.10
2018-12-31T12:13:09.665Z,5.10
2018-12-31T12:15:38.505Z,5.10
2018-12-31T12:18:07.429Z,5.20
2018-12-31T12:20:36.278Z,5.20
2018-12-31T12:23:05.241Z,5.20
2018-12-31T12:25:34.090Z,5.30
2018-12-31T12:28:02.942Z,5.30
2018-12-31T12:30:31.793Z,5.30
2018-12-31T12:33:00.937Z,5.60
2018-12-31T12:35:29.858Z,6.50
2018-12-31T12:37:58.805Z,6.90
2018-12-31T12:40:28.001Z,7.00
2018-12-31T12:42:56.940Z,6.60
2018-12-31T12:45:25.802Z,6.70
2018-12-31T12:47:54.810Z,7.30
2018-12-31T12:50:23.687Z,7.20
2018-12-31T12:52:52.645Z,7.40
2018-12-31T12:55:21.729Z,7.20
2018-12-31T12:57:50.577Z,7.60
2018-12-31T13:00:19.906Z,7.40
2018-12-31T13:02:48.841Z,7.50
2018-12-31T13:05:17.790Z,6.90
2018-12-31T13:07:46.967Z,7.30
2018-12-31T13:10:16.133Z,7.60
2018-12-31T13:12:45.082Z,7.70
2018-12-31T13:15:14.881Z,7.30
2018-12-31T13:17:44.022Z,7.80
2018-12-31T13:20:13.013Z,7.90
2018-12-31T13:22:41.958Z,8.00
2018-12-31T13:25:10.977Z,8.00
2018-12-31T13:27:39.901Z,7.60
2018-12-31T13:30:10.540Z,7.70
2018-12-31T13:32:39.701Z,8.00
2018-12-31T13:35:08.713Z,8.00
2018-12-31T13:37:37.603Z,8.00
2018-12-31T13:40:06.630Z,8.00
2018-12-31T13:42:36.022Z,8.00
2018-12-31T13:45:05.029Z,8.00
2018-12-31T13:47:34.005Z,7.90
2018-12-31T13:50:03.223Z,8.00
2018-12-31T13:52:32.077Z,8.00
2018-12-31T13:55:01.379Z,7.90
2018-12-31T13:57:30.299Z,8.00
2018-12-31T13:59:59.250Z,7.90
2018-12-31T14:02:28.438Z,7.80
2018-12-31T14:04:57.573Z,7.70
2018-12-31T14:07:26.788Z,7.70
2018-12-31T14:09:56.005Z,7.70
2018-12-31T14:12:24.840Z,7.70
2018-12-31T14:14:53.764Z,7.50
2018-12-31T14:17:22.621Z,7.60
2018-12-31T14:19:51.625Z,7.80
2018-12-31T14:22:20.473Z,7.70
2018-12-31T14:24:49.429Z,7.90
2018-12-31T14:27:18.437Z,7.70
2018-12-31T14:29:47.394Z,7.90
2018-12-31T14:32:16.497Z,7.80
2018-12-31T14:34:45.837Z,8.10
2018-12-31T14:37:14.929Z,7.60
2018-12-31T14:39:43.875Z,7.10
2018-12-31T14:42:12.872Z,6.80
2018-12-31T14:44:41.826Z,6.70
2018-12-31T14:47:18.083Z,6.70
2018-12-31T14:49:41.317Z,6.60
2018-12-31T14:52:10.627Z,6.50
2018-12-31T14:54:39.576Z,6.40
2018-12-31T14:57:08.541Z,6.40
2018-12-31T14:59:37.481Z,6.30
2018-12-31T15:02:06.497Z,6.30
2018-12-31T15:04:35.405Z,6.30
2018-12-31T15:07:04.363Z,6.10
2018-12-31T15:09:33.288Z,6.10
2018-12-31T15:12:02.296Z,6.10
2018-12-31T15:14:31.189Z,6.00
2018-12-31T15:17:00.181Z,6.00
2018-12-31T15:19:29.237Z,6.00
2018-12-31T15:21:58.361Z,6.10
2018-12-31T15:24:27.352Z,6.00
2018-12-31T15:26:56.351Z,6.00
2018-12-31T15:29:25.188Z,6.10
2018-12-31T15:31:54.117Z,6.10
2018-12-31T15:34:23.033Z,6.00
2018-12-31T15:36:51.957Z,6.10
2018-12-31T15:39:20.870Z,6.00
2018-12-31T15:41:49.864Z,6.10
2018-12-31T15:44:18.853Z,6.10
2018-12-31T15:46:47.798Z,6.10
2018-12-31T15:49:16.733Z,6.10
2018-12-31T15:51:45.667Z,6.00
2018-12-31T15:54:14.647Z,6.00
2018-12-31T15:56:43.502Z,6.00
2018-12-31T15:59:12.663Z,6.00
2018-12-31T16:01:41.602Z,6.10
2018-12-31T16:04:10.481Z,6.10
2018-12-31T16:06:39.513Z,6.10
2018-12-31T16:09:08.550Z,6.10
2018-12-31T16:11:37.844Z,6.10
2018-12-31T16:14:06.766Z,6.10
2018-12-31T16:16:36.244Z,6.00
2018-12-31T16:19:05.155Z,6.00
2018-12-31T16:21:34.357Z,6.10
2018-12-31T16:24:03.657Z,6.10
2018-12-31T16:26:32.616Z,6.10
2018-12-31T16:29:01.487Z,6.00
2018-12-31T16:31:30.645Z,6.10
2018-12-31T16:33:59.893Z,6.10
2018-12-31T16:36:29.125Z,6.10
2018-12-31T16:38:58.119Z,6.00
2018-12-31T16:41:27.049Z,6.10
2018-12-31T16:43:56.068Z,6.10
2018-12-31T16:46:24.998Z,6.20
2018-12-31T16:48:54.598Z,6.20
2018-12-31T16:51:23.544Z,6.20
2018-12-31T16:53:52.648Z,6.10
2018-12-31T16:56:21.588Z,6.10
2018-12-31T16:58:50.535Z,6.10
2018-12-31T17:01:19.849Z,6.10
2018-12-31T17:03:48.777Z,6.10
2018-12-31T17:06:17.693Z,6.20
2018-12-31T17:08:46.537Z,6.20
2018-12-31T17:11:15.545Z,6.20
2018-12-31T17:13:44.481Z,6.20
2018-12-31T17:16:13.511Z,6.20
2018-12-31T17:18:42.441Z,6.30
2018-12-31T17:21:11.289Z,6.30
2018-12-31T17:23:40.482Z,6.30
2018-12-31T17:26:09.350Z,6.30
2018-12-31T17:28:38.213Z,6.20
2018-12-31T17:31:07.213Z,6.20
2018-12-31T17:33:36.070Z,6.20
2018-12-31T17:36:05.320Z,6.30
2018-12-31T17:38:34.348Z,6.20
2018-12-31T17:41:03.541Z,6.20
2018-12-31T17:43:32.547Z,6.30
2018-12-31T17:46:01.481Z,6.20
2018-12-31T17:48:30.529Z,6.30
2018-12-31T17:50:59.602Z,6.40
2018-12-31T17:53:28.786Z,6.40
2018-12-31T17:55:57.641Z,6.30
2018-12-31T17:58:26.493Z,6.30
2018-12-31T18:00:55.413Z,6.20
2018-12-31T18:03:24.408Z,6.30
2018-12-31T18:05:53.325Z,6.30
2018-12-31T18:08:22.949Z,6.30
2018-12-31T18:10:51.869Z,6.30
2018-12-31T18:13:20.786Z,6.40
2018-12-31T18:15:49.921Z,6.40
2018-12-31T18:18:18.787Z,6.40
2018-12-31T18:20:47.741Z,6.30
2018-12-31T18:23:16.604Z,6.10
2018-12-31T18:25:45.684Z,6.10
2018-12-31T18:28:14.865Z,6.10
2018-12-31T18:30:44.033Z,6.20
2018-12-31T18:33:12.953Z,6.30
2018-12-31T18:35:41.954Z,6.30
2018-12-31T18:38:11.028Z,6.30
2018-12-31T18:40:40.046Z,6.20
2018-12-31T18:43:09.629Z,6.20
2018-12-31T18:45:38.842Z,6.20
2018-12-31T18:48:07.681Z,6.30
2018-12-31T18:50:36.829Z,6.30
2018-12-31T18:53:05.752Z,6.40
2018-12-31T18:55:35.343Z,6.40
2018-12-31T18:58:04.367Z,6.30
2018-12-31T19:00:33.396Z,6.30
2018-12-31T19:03:02.337Z,6.30
2018-12-31T19:05:31.501Z,6.30
2018-12-31T19:08:00.717Z,6.20
2018-12-31T19:10:29.578Z,6.20
2018-12-31T19:12:58.422Z,6.20
2018-12-31T19:15:27.272Z,6.30
2018-12-31T19:17:56.201Z,6.30
2018-12-31T19:20:25.509Z,6.30
2018-12-31T19:22:54.372Z,6.30
2018-12-31T19:25:23.329Z,6.30
2018-12-31T19:27:52.177Z,6.40
2018-12-31T19:30:21.461Z,6.40
2018-12-31T19:32:50.304Z,6.40
2018-12-31T19:35:19.245Z,6.30
2018-12-31T19:37:48.201Z,6.30
2018-12-31T19:40:17.394Z,6.40
2018-12-31T19:42:46.275Z,6.40
2018-12-31T19:45:15.121Z,6.40
2018-12-31T19:47:44.058Z,6.40
2018-12-31T19:50:13.064Z,6.40
2018-12-31T19:52:41.913Z,6.40
2018-12-31T19:55:11.179Z,6.40
2018-12-31T19:57:40.154Z,6.40
2018-12-31T20:00:09.637Z,6.40
2018-12-31T20:02:38.562Z,6.40
2018-12-31T20:05:07.676Z,6.30
2018-12-31T20:07:36.821Z,6.30
2018-12-31T20:10:06.133Z,6.20
2018-12-31T20:12:35.387Z,6.30
2018-12-31T20:15:04.537Z,6.20
2018-12-31T20:17:33.406Z,6.20
2018-12-31T20:20:02.346Z,6.20
2018-12-31T20:22:31.366Z,6.20
2018-12-31T20:25:00.748Z,6.20
2018-12-31T20:27:29.679Z,6.20
2018-12-31T20:29:58.591Z,6.20
2018-12-31T20:32:27.534Z,6.20
2018-12-31T20:34:56.551Z,6.20
2018-12-31T20:37:25.398Z,6.00
2018-12-31T20:39:54.332Z,5.80
2018-12-31T20:42:23.197Z,5.90
2018-12-31T20:44:52.121Z,5.90
2018-12-31T20:47:20.989Z,5.90
2018-12-31T20:49:49.826Z,5.80
2018-12-31T20:52:19.358Z,5.90
2018-12-31T20:54:48.537Z,5.80
2018-12-31T20:57:17.404Z,5.80
2018-12-31T20:59:46.559Z,5.70
2018-12-31T21:02:15.413Z,5.70
2018-12-31T21:04:44.358Z,5.70
2018-12-31T21:07:13.319Z,5.80
2018-12-31T21:09:42.190Z,5.90
2018-12-31T21:12:11.162Z,5.90
2018-12-31T21:14:40.008Z,5.80
2018-12-31T21:17:08.954Z,5.70
2018-12-31T21:19:37.941Z,5.70
2018-12-31T21:22:06.939Z,5.70
2018-12-31T21:24:35.941Z,5.70
2018-12-31T21:27:04.858Z,5.70
2018-12-31T21:29:33.718Z,5.80
2018-12-31T21:32:03.654Z,5.80
2018-12-31T21:34:32.629Z,5.80
2018-12-31T21:37:01.478Z,5.70
2018-12-31T21:39:30.334Z,5.70
2018-12-31T21:41:59.349Z,5.70
2018-12-31T21:44:28.765Z,5.60
2018-12-31T21:46:58.015Z,5.60
2018-12-31T21:49:27.029Z,5.60
2018-12-31T21:51:55.966Z,5.70
2018-12-31T21:54:24.950Z,5.70
2018-12-31T21:56:53.959Z,5.70
2018-12-31T21:59:22.907Z,5.70
2018-12-31T22:01:51.749Z,5.40
2018-12-31T22:04:20.678Z,5.50
2018-12-31T22:06:49.521Z,5.50
2018-12-31T22:09:18.372Z,5.50
2018-12-31T22:11:47.389Z,5.50
2018-12-31T22:14:16.251Z,5.60
2018-12-31T22:16:45.170Z,5.60
2018-12-31T22:19:14.117Z,5.60
2018-12-31T22:21:43.398Z,5.60
2018-12-31T22:24:12.586Z,5.60
2018-12-31T22:26:41.594Z,5.60
2018-12-31T22:29:10.462Z,5.50
2018-12-31T22:31:39.740Z,5.50
2018-12-31T22:34:08.601Z,5.60
2018-12-31T22:36:38.118Z,5.60
2018-12-31T22:39:07.630Z,5.70
2018-12-31T22:41:36.566Z,5.60
2018-12-31T22:44:05.517Z,5.60
2018-12-31T22:46:34.371Z,5.60
2018-12-31T22:49:03.877Z,5.70
2018-12-31T22:51:32.749Z,5.70
2018-12-31T22:54:01.605Z,5.70
2018-12-31T22:56:30.610Z,5.70
2018-12-31T22:58:59.572Z,5.70
2018-12-31T23:01:28.774Z,5.70
2018-12-31T23:03:57.665Z,5.80
2018-12-31T23:06:26.899Z,5.80
2018-12-31T23:08:55.818Z,5.60
2018-12-31T23:11:24.764Z,5.60
2018-12-31T23:13:54.017Z,5.70
2018-12-31T23:16:25.585Z,5.80
2018-12-31T23:18:55.141Z,5.80
2018-12-31T23:21:24.073Z,5.70
2018-12-31T23:23:53.050Z,5.70
2018-12-31T23:26:22.521Z,5.70
2018-12-31T23:28:52.739Z,5.80
2018-12-31T23:31:21.913Z,5.90
2018-12-31T23:33:50.853Z,5.80
2018-12-31T23:36:19.803Z,5.70
2018-12-31T23:38:48.797Z,5.70
2018-12-31T23:41:18.168Z,5.70
2018-12-31T23:43:47.033Z,5.70
2018-12-31T23:46:16.297Z,5.70
2018-12-31T23:48:45.171Z,5.80
2018-12-31T23:51:14.555Z,5.80
2018-12-31T23:53:43.504Z,5.80
2018-12-31T23:56:12.453Z,5.80
2018-12-31T23:58:41.292Z,5.70
